Time,TemperatureF,DewpointF,PressureIn,WindDirection,WindDirectionDegrees,WindSpeedMPH,WindSpeedGustMPH,Humidity,HourlyPrecipIn,Conditions,Clouds,dailyrainin,SolarRadiationWatts/m^2,SoftwareType,DateUTC
2013-02-08 00:50:00,33.0,19.0,29.73,SE,143,10.0,15.0,58,-99.99,,,-99.99,0.000000,,2013-02-08 08:50:00,
2013-02-08 01:50:00,32.0,19.0,29.72,SE,139,10.0,13.0,58,-99.99,,,-99.99,0.000000,,2013-02-08 09:50:00,
2013-02-08 02:50:00,31.0,20.0,29.68,SE,141,8.0,12.0,63,-99.99,,,-99.99,0.000000,,2013-02-08 10:50:00,
2013-02-08 03:50:00,30.0,20.0,29.65,SE,138,8.0,11.0,66,-99.99,,,-99.99,0.000000,,2013-02-08 11:50:00,
2013-02-08 04:50:00,30.0,24.0,29.64,SSE,148,12.0,20.0,76,-99.99,,,-99.99,0.000000,,2013-02-08 12:50:00,
2013-02-08 05:50:00,28.0,26.0,29.62,SE,144,5.0,7.0,92,-99.99,,,-99.99,0.000000,,2013-02-08 13:50:00,
2013-02-08 06:50:00,27.0,25.0,29.60,ESE,119,3.0,5.0,92,-99.99,,,-99.99,10.000000,,2013-02-08 14:50:00,
2013-02-08 07:50:00,26.0,25.0,29.60,North,351,6.0,10.0,94,-99.99,,,-99.99,30.000000,,2013-02-08 15:50:00,
2013-02-08 08:50:00,27.0,25.0,29.60,North,5,4.0,6.0,92,-99.99,,,-99.99,60.000000,,2013-02-08 16:50:00,
2013-02-08 09:50:00,28.0,25.0,29.59,North,8,8.0,11.0,90,-99.99,,,-99.99,270.000000,,2013-02-08 17:50:00,
2013-02-08 10:50:00,30.0,23.0,29.58,North,2,7.0,13.0,76,-99.99,,,-99.99,450.000000,,2013-02-08 18:50:00,
2013-02-08 12:50:00,29.0,24.0,29.56,SSE,155,4.0,9.0,79,-99.99,,,-99.99,110.000000,,2013-02-08 20:50:00,
2013-02-08 14:50:00,27.0,22.0,29.54,SE,144,11.0,15.0,81,-99.99,,,-99.99,190.000000,,2013-02-08 22:50:00,
2013-02-08 15:50:00,28.0,21.0,29.54,East,97,4.0,9.0,74,-99.99,,,-99.99,150.000000,,2013-02-08 23:50:00,
2013-02-08 16:50:00,27.0,19.0,29.55,South,184,4.0,8.0,72,-99.99,,,-99.99,20.000000,,2013-02-09 00:50:00,
2013-02-08 17:50:00,26.0,20.0,29.57,South,170,2.0,5.0,79,-99.99,,,-99.99,0.000000,,2013-02-09 01:50:00,
2013-02-08 18:50:00,24.0,21.0,29.57,SSE,154,5.0,8.0,87,-99.99,,,-99.99,0.000000,,2013-02-09 02:50:00,
2013-02-08 19:50:00,24.0,21.0,29.57,SSE,157,3.0,6.0,90,-99.99,,,-99.99,0.000000,,2013-02-09 03:50:00,
2013-02-08 20:50:00,24.0,22.0,29.58,SSE,152,3.0,6.0,91,-99.99,,,-99.99,0.000000,,2013-02-09 04:50:00,
2013-02-08 22:50:00,23.0,21.0,29.58,NNW,335,4.0,6.0,92,-99.99,,,-99.99,0.000000,,2013-02-09 06:50:00,
2013-02-08 23:50:00,22.0,20.0,29.59,NNW,340,7.0,10.0,92,-99.99,,,-99.99,0.000000,,2013-02-09 07:50:00,